EGSSLETO

Guest
Details From EGSS - London Stansted
To LETO - Torrejon
Flight Number -
Tags decoded
Created
Modified
Stats Distance 701 nm / 1,298 km
Max Altitude 0 ft / 0 m
Waypoints 2
Social Downloads 0
Likes 0
Share VATSIM

Download

Looking for another format? Having issues loading an existing format? Contact us
Advertisement - Login to hide

Notes

Requested: EGSS S1CTCV LETO Unmatched points: S1CTCV

Route

EGSS LETO

ID Type Via Altitude Latitude Longitude Leg Dist Tot Dist Heading (true) Name
O EGSS APT - 0 ft / 0 m 51.88510˚ 0.23496˚ - 0 nm - London Stansted
O LETO APT - 0 ft / 0 m 40.49675˚ -3.44587˚ 700 nm 700 nm 194° / 191° Torrejon

Altitude Profile

Advertisement - Login to hide

Weather


0- 5 10 15 20 25 30 35+ Temperature / ° C

Clouds and Precipitation
Forecast for 2017-12-14 06:00 UTC. Updated an hour ago

Ground ~20,000 ft ~40,000 ft Winds

EGSS

Details ICAO EGSS (STN)
Name London Stansted
Region United Kingdom
Timezone Europe/London (UTC+0.0)
Stats Elevation 348 ft / 106 m (AMSL)
Location 51.885097° 0.234962°
Runways 1
Magnetic Variation 0.363° W

METAR

EGSS 140620Z AUTO 24010KT 9999 FEW037 03/00 Q0991

Decode

TAF

TAF EGSS 140459Z 1406/1512 26012KT 9999 SCT030 PROB30 TEMPO 1406/1410 27020G30KT PROB30 TEMPO 1406/1414 7000 SHRA BKN014 BECMG 1417/1420 20009KT TEMPO 1420/1509 7000 SHRA BKN008 PROB30 TEMPO 1500/1507 3000 SHRASN BKN004 BECMG 1507/1510 34010KT

Decode

Departure Runways

ID Width Length Bearing (true) Bearing (mag) Surface Threshold Offset Overrun Length
04 151 ft / 46 m 10,011 ft / 3,052 m 42.79° 43.15° Asphalt 994 ft / 303 m 0 ft / 0 m
22 151 ft / 46 m 10,011 ft / 3,052 m 222.81° 223.17° Asphalt 0 ft / 0 m 0 ft / 0 m

LETO

Details ICAO LETO (TOJ)
Name Torrejon
Region Spain
Timezone Europe/Madrid (UTC+1.0)
Stats Elevation 2,025 ft / 617 m (AMSL)
Location 40.496746° -3.445870°
Runways 1
Magnetic Variation 0.653° W

METAR

LETO 140622Z 21009KT 1500 BR BKN001 06/06 Q1022 BECMG 0800 FG VV001

Decode

TAF

TAF AMD LETO 140622Z 1406/1506 23007KT 9999 BKN004 TX10/1415Z TN02/1406Z TEMPO 1406/1410 0800 FG VV001 TEMPO 1413/1417 OVC007 BECMG 1502/1504 SCT003

Decode

Destination Runways

ID Width Length Bearing (true) Bearing (mag) Surface Threshold Offset Overrun Length
05 217 ft / 66 m 12,004 ft / 3,659 m 43.28° 43.93° Asphalt 0 ft / 0 m 2,739 ft / 835 m
23 217 ft / 66 m 12,004 ft / 3,659 m 223.30° 223.95° Asphalt 0 ft / 0 m 1,066 ft / 325 m

Approach Navaids

Runway Type Ident Frequency Range Bearing (true) Bearing (mag) Slope Elevation
23 Localiser ITJA 109.50 MHz 18 nm / 33 km 223.26° 223.92° - 2,025 ft / 617 m (AMSL)
23 Glidescope ITJA 109.50 MHz 10 nm / 19 km 223.29° 223.94° 3.00° 2,025 ft / 617 m (AMSL)
23 DME ITJA 109.50 MHz 18 nm / 33 km - - - 2,011 ft / 613 m (AMSL)